createdAt,value
2023-03-06T00:02:05.697Z,1.78
2023-03-06T00:04:32.248Z,1.81
2023-03-06T00:06:58.792Z,1.60
2023-03-06T00:09:25.310Z,1.69
2023-03-06T00:11:51.980Z,1.37
2023-03-06T00:14:18.462Z,1.54
2023-03-06T00:16:44.918Z,1.58
2023-03-06T00:19:11.442Z,1.63
2023-03-06T00:21:40.881Z,1.40
2023-03-06T00:24:07.490Z,1.15
2023-03-06T00:26:33.923Z,1.62
2023-03-06T00:29:00.464Z,1.32
2023-03-06T00:31:26.978Z,1.03
2023-03-06T00:33:53.540Z,1.37
2023-03-06T00:36:19.990Z,1.44
2023-03-06T00:38:46.469Z,1.49
2023-03-06T00:41:13.617Z,1.42
2023-03-06T00:43:40.157Z,1.57
2023-03-06T00:46:07.083Z,1.55
2023-03-06T00:48:34.088Z,1.59
2023-03-06T00:51:00.781Z,1.27
2023-03-06T00:53:27.527Z,1.48
2023-03-06T00:55:54.068Z,1.63
2023-03-06T00:58:20.502Z,1.50
2023-03-06T01:00:46.936Z,1.49
2023-03-06T01:03:13.481Z,1.46
2023-03-06T01:05:40.294Z,1.34
2023-03-06T01:08:07.077Z,1.43
2023-03-06T01:10:33.571Z,1.18
2023-03-06T01:13:00.120Z,1.49
2023-03-06T01:15:26.536Z,1.37
2023-03-06T01:17:54.064Z,1.39
2023-03-06T01:20:23.944Z,1.40
2023-03-06T01:22:50.476Z,1.44
2023-03-06T01:25:17.090Z,1.25
2023-03-06T01:27:43.630Z,1.32
2023-03-06T01:30:10.960Z,1.23
2023-03-06T01:32:37.461Z,1.20
2023-03-06T01:35:04.266Z,1.18
2023-03-06T01:37:30.803Z,1.14
2023-03-06T01:39:57.330Z,0.71
2023-03-06T01:42:23.778Z,1.02
2023-03-06T01:45:27.096Z,0.82
2023-03-06T01:47:53.612Z,0.86
2023-03-06T01:50:20.155Z,0.89
2023-03-06T01:52:52.612Z,0.68
2023-03-06T01:55:26.990Z,0.57
2023-03-06T01:57:57.734Z,0.23
2023-03-06T02:00:26.876Z,0.45
2023-03-06T02:03:10.682Z,0.68
2023-03-06T02:05:38.210Z,0.39
2023-03-06T02:08:06.648Z,0.66
2023-03-06T02:10:33.896Z,0.64
2023-03-06T02:13:00.942Z,0.66
2023-03-06T02:15:29.632Z,0.34
2023-03-06T02:17:56.696Z,0.62
2023-03-06T02:20:38.998Z,0.60
2023-03-06T02:23:17.163Z,0.52
2023-03-06T02:25:47.290Z,0.55
2023-03-06T02:28:17.136Z,0.36
2023-03-06T02:30:45.316Z,0.45
2023-03-06T02:33:17.450Z,0.42
2023-03-06T02:35:50.977Z,0.38
2023-03-06T02:38:23.403Z,0.40
2023-03-06T02:40:52.159Z,0.07
2023-03-06T02:43:24.299Z,0.39
2023-03-06T02:45:51.737Z,0.36
2023-03-06T02:48:19.758Z,0.12
2023-03-06T02:50:47.457Z,0.28
2023-03-06T02:53:16.412Z,0.37
2023-03-06T02:55:42.967Z,0.29
2023-03-06T02:58:09.911Z,0.22
2023-03-06T03:00:36.760Z,0.25
2023-03-06T03:03:03.842Z,0.27
2023-03-06T03:05:30.282Z,0.35
2023-03-06T03:07:56.841Z,0.50
2023-03-06T03:10:23.597Z,0.21
2023-03-06T03:12:50.552Z,0.44
2023-03-06T03:15:17.763Z,0.16
2023-03-06T03:17:44.247Z,0.50
2023-03-06T03:20:14.315Z,0.44
2023-03-06T03:22:41.397Z,0.13
2023-03-06T03:25:08.953Z,0.14
2023-03-06T03:27:35.384Z,0.22
2023-03-06T03:30:01.818Z,0.14
2023-03-06T03:32:28.295Z,0.37
2023-03-06T03:34:55.875Z,0.37
2023-03-06T03:37:22.423Z,0.24
2023-03-06T03:39:48.886Z,0.14
2023-03-06T03:42:15.422Z,0.21
2023-03-06T03:44:41.847Z,-0.06
2023-03-06T03:47:08.412Z,-0.02
2023-03-06T03:49:34.920Z,0.17
2023-03-06T03:52:01.370Z,-0.03
2023-03-06T03:54:27.774Z,0.12
2023-03-06T03:56:54.265Z,0.16
2023-03-06T03:59:20.687Z,0.12
2023-03-06T04:01:47.185Z,0.02
2023-03-06T04:04:13.767Z,-0.02
2023-03-06T04:06:40.206Z,0.21
2023-03-06T04:09:07.016Z,-0.09
2023-03-06T04:11:33.423Z,0.28
2023-03-06T04:13:59.849Z,0.31
2023-03-06T04:16:26.411Z,0.24
2023-03-06T04:18:52.848Z,0.28
2023-03-06T04:21:19.244Z,0.29
2023-03-06T04:23:45.696Z,0.23
2023-03-06T04:26:12.230Z,-0.07
2023-03-06T04:28:38.777Z,0.31
2023-03-06T04:31:05.506Z,0.40
2023-03-06T04:33:32.008Z,0.26
2023-03-06T04:35:58.440Z,-0.04
2023-03-06T04:38:24.853Z,0.26
2023-03-06T04:40:51.362Z,0.03
2023-03-06T04:43:17.837Z,-0.05
2023-03-06T04:45:44.367Z,0.50
2023-03-06T04:48:14.599Z,0.10
2023-03-06T04:50:41.107Z,0.34
2023-03-06T04:53:07.879Z,0.40
2023-03-06T04:55:34.572Z,0.25
2023-03-06T04:58:00.972Z,0.42
2023-03-06T05:00:28.389Z,0.51
2023-03-06T05:02:54.820Z,0.70
2023-03-06T05:05:21.247Z,0.74
2023-03-06T05:07:47.682Z,0.67
2023-03-06T05:10:16.902Z,0.15
2023-03-06T05:12:43.715Z,0.47
2023-03-06T05:15:11.554Z,0.46
2023-03-06T05:17:38.507Z,0.48
2023-03-06T05:20:06.966Z,0.71
2023-03-06T05:22:34.590Z,0.74
2023-03-06T05:25:01.121Z,0.52
2023-03-06T05:27:28.231Z,0.75
2023-03-06T05:29:54.849Z,0.88
2023-03-06T05:32:21.730Z,0.84
2023-03-06T05:34:49.054Z,0.97
2023-03-06T05:37:15.629Z,0.92
2023-03-06T05:39:42.299Z,0.78
2023-03-06T05:42:08.751Z,0.79
2023-03-06T05:44:35.756Z,1.10
2023-03-06T05:47:02.562Z,1.19
2023-03-06T05:49:36.075Z,0.80
2023-03-06T05:52:04.200Z,1.13
2023-03-06T05:54:35.207Z,0.96
2023-03-06T05:57:02.380Z,1.13
2023-03-06T05:59:28.763Z,1.08
2023-03-06T06:01:55.903Z,1.09
2023-03-06T06:04:23.464Z,1.25
2023-03-06T06:06:58.775Z,1.36
2023-03-06T06:09:26.187Z,1.45
2023-03-06T06:11:55.210Z,1.42
2023-03-06T06:14:21.660Z,1.40
2023-03-06T06:16:48.615Z,1.30
2023-03-06T06:19:15.049Z,1.15
2023-03-06T06:21:41.519Z,1.37
2023-03-06T06:24:08.114Z,1.29
2023-03-06T06:26:34.815Z,1.43
2023-03-06T06:29:03.280Z,1.10
2023-03-06T06:31:29.780Z,1.30
2023-03-06T06:33:56.288Z,1.28
2023-03-06T06:36:22.726Z,1.10
2023-03-06T06:38:49.895Z,0.97
2023-03-06T06:41:39.286Z,1.25
2023-03-06T06:44:08.998Z,1.34
2023-03-06T06:49:24.598Z,1.50
2023-03-06T06:51:51.022Z,1.51
2023-03-06T06:54:17.460Z,1.59
2023-03-06T06:56:43.956Z,1.52
2023-03-06T06:59:16.493Z,1.52
2023-03-06T07:01:44.046Z,1.31
2023-03-06T07:04:14.117Z,1.68
2023-03-06T07:06:41.433Z,1.27
2023-03-06T07:09:08.189Z,1.24
2023-03-06T07:11:34.739Z,1.56
2023-03-06T07:14:01.180Z,1.65
2023-03-06T07:16:27.642Z,1.25
2023-03-06T07:18:54.128Z,1.52
2023-03-06T07:21:20.647Z,1.62
2023-03-06T07:23:47.118Z,1.33
2023-03-06T07:26:13.588Z,1.24
2023-03-06T07:28:51.475Z,1.49
2023-03-06T07:31:20.946Z,1.21
2023-03-06T07:33:51.311Z,1.30
2023-03-06T07:36:18.433Z,1.69
2023-03-06T07:38:45.289Z,1.89
2023-03-06T07:41:13.266Z,1.86
2023-03-06T07:43:41.112Z,1.67
2023-03-06T07:46:08.083Z,1.66
2023-03-06T07:48:35.954Z,2.00
2023-03-06T07:51:05.685Z,2.14
2023-03-06T07:53:32.442Z,2.20
2023-03-06T07:55:59.240Z,2.59
2023-03-06T07:58:26.672Z,2.35
2023-03-06T08:00:53.185Z,2.33
2023-03-06T08:03:19.739Z,2.45
2023-03-06T08:05:46.290Z,2.34
2023-03-06T08:08:12.892Z,2.17
2023-03-06T08:10:39.351Z,2.27
2023-03-06T08:13:06.500Z,2.27
2023-03-06T08:15:32.960Z,2.20
2023-03-06T08:17:59.433Z,2.55
2023-03-06T08:20:25.955Z,2.73
2023-03-06T08:22:52.383Z,2.59
2023-03-06T08:25:18.783Z,2.46
2023-03-06T08:27:45.218Z,2.32
2023-03-06T08:30:12.409Z,2.38
2023-03-06T08:32:39.022Z,2.49
2023-03-06T08:35:05.998Z,2.27
2023-03-06T08:37:32.468Z,2.68
2023-03-06T08:39:58.940Z,2.76
2023-03-06T08:42:25.361Z,3.02
2023-03-06T08:44:51.795Z,2.66
2023-03-06T08:47:18.313Z,2.46
2023-03-06T08:49:44.796Z,3.05
2023-03-06T08:52:11.288Z,2.85
2023-03-06T08:54:37.768Z,3.25
2023-03-06T08:57:04.233Z,3.16
2023-03-06T08:59:30.720Z,3.33
2023-03-06T09:01:57.221Z,3.47
2023-03-06T09:04:23.683Z,3.77
2023-03-06T09:06:50.201Z,3.46
2023-03-06T09:09:16.691Z,3.70
2023-03-06T09:11:43.154Z,3.91
2023-03-06T09:14:09.586Z,3.76
2023-03-06T09:16:36.063Z,3.99
2023-03-06T09:19:02.635Z,3.87
2023-03-06T09:21:29.106Z,4.43
2023-03-06T09:23:56.374Z,4.33
2023-03-06T09:26:28.073Z,3.97
2023-03-06T09:28:59.490Z,4.14
2023-03-06T09:31:25.943Z,4.46
2023-03-06T09:33:52.396Z,4.39
2023-03-06T09:36:21.589Z,4.22
2023-03-06T09:38:48.654Z,4.34
2023-03-06T09:41:37.403Z,4.05
2023-03-06T09:44:25.620Z,4.46
2023-03-06T09:47:11.226Z,4.68
2023-03-06T09:50:22.791Z,4.77
2023-03-06T09:53:26.123Z,4.76
2023-03-06T09:56:00.795Z,4.61
2023-03-06T09:58:30.074Z,4.75
2023-03-06T10:01:16.214Z,4.80
2023-03-06T10:03:54.221Z,5.39
2023-03-06T10:06:31.240Z,5.75
2023-03-06T10:09:06.738Z,5.91
2023-03-06T10:11:43.515Z,6.62
2023-03-06T10:14:28.534Z,6.08
2023-03-06T10:16:55.302Z,6.26
2023-03-06T10:19:22.032Z,6.34
2023-03-06T10:22:04.074Z,6.19
2023-03-06T10:25:08.205Z,6.82
2023-03-06T10:27:48.510Z,7.74
2023-03-06T10:30:40.267Z,6.11
2023-03-06T10:33:36.126Z,5.45
2023-03-06T10:36:02.664Z,6.23
2023-03-06T10:38:32.249Z,6.09
2023-03-06T10:41:10.938Z,5.78
2023-03-06T10:43:45.488Z,5.74
2023-03-06T10:46:26.392Z,5.21
2023-03-06T10:49:01.914Z,5.88
2023-03-06T10:51:30.558Z,6.13
2023-03-06T10:54:00.156Z,6.30
2023-03-06T10:56:31.465Z,6.05
2023-03-06T10:59:18.625Z,6.49
2023-03-06T11:01:51.606Z,6.48
2023-03-06T11:04:20.853Z,6.47
2023-03-06T11:06:47.472Z,6.64
2023-03-06T11:09:21.658Z,6.47
2023-03-06T11:11:49.410Z,5.87
2023-03-06T11:14:18.803Z,5.59
2023-03-06T11:16:53.339Z,5.77
2023-03-06T11:19:21.849Z,5.75
2023-03-06T11:22:26.820Z,5.78
2023-03-06T11:24:54.866Z,5.83
2023-03-06T11:27:26.522Z,6.05
2023-03-06T11:29:55.981Z,5.96
2023-03-06T11:32:42.404Z,6.38
2023-03-06T11:35:44.960Z,6.35
2023-03-06T11:38:18.876Z,6.48
2023-03-06T11:40:45.267Z,6.13
2023-03-06T11:43:17.120Z,6.54
2023-03-06T11:45:56.092Z,6.90
2023-03-06T11:48:33.071Z,7.60
2023-03-06T11:51:09.258Z,7.36
2023-03-06T11:53:39.244Z,7.90
2023-03-06T11:56:21.449Z,7.63
2023-03-06T11:59:03.210Z,7.27
2023-03-06T12:02:04.612Z,7.24
2023-03-06T12:04:51.368Z,7.33
2023-03-06T12:07:26.687Z,7.01
2023-03-06T12:09:59.111Z,6.30
2023-03-06T12:12:25.523Z,6.36
2023-03-06T12:15:10.054Z,6.61
2023-03-06T12:18:01.408Z,6.79
2023-03-06T12:20:49.721Z,7.52
2023-03-06T12:23:38.113Z,7.41
2023-03-06T12:26:42.119Z,7.52
2023-03-06T12:29:41.110Z,8.29
2023-03-06T12:32:44.947Z,7.90
2023-03-06T12:35:48.491Z,7.76
2023-03-06T12:38:43.776Z,7.15
2023-03-06T12:41:47.689Z,6.96
2023-03-06T12:44:33.005Z,7.02
2023-03-06T12:47:04.906Z,7.89
2023-03-06T12:49:33.469Z,7.16
2023-03-06T12:52:02.112Z,7.15
2023-03-06T12:54:33.265Z,7.32
2023-03-06T12:57:00.745Z,7.02
2023-03-06T12:59:44.863Z,7.18
2023-03-06T13:02:11.279Z,7.77
2023-03-06T13:04:59.321Z,6.55
2023-03-06T13:07:54.077Z,7.54
2023-03-06T13:10:40.964Z,6.79
2023-03-06T13:13:33.619Z,7.36
2023-03-06T13:16:34.561Z,6.61
2023-03-06T13:19:16.642Z,6.53
2023-03-06T13:21:55.337Z,7.10
2023-03-06T13:24:27.406Z,6.80
2023-03-06T13:27:05.939Z,6.67
2023-03-06T13:29:38.277Z,7.35
2023-03-06T13:32:12.318Z,6.86
2023-03-06T13:34:43.887Z,6.91
2023-03-06T13:37:19.562Z,6.74
2023-03-06T13:39:54.902Z,6.59
2023-03-06T13:42:31.282Z,6.86
2023-03-06T13:45:07.520Z,7.07
2023-03-06T13:48:15.568Z,6.44
2023-03-06T13:50:46.917Z,6.33
2023-03-06T13:53:19.512Z,6.59
2023-03-06T13:56:18.737Z,6.62
2023-03-06T13:58:54.227Z,6.67
2023-03-06T14:01:23.849Z,6.82
2023-03-06T14:04:27.575Z,6.86
2023-03-06T14:07:20.096Z,6.70
2023-03-06T14:09:59.725Z,6.32
2023-03-06T14:12:32.925Z,6.22
2023-03-06T14:15:04.370Z,6.52
2023-03-06T14:17:37.471Z,6.28
2023-03-06T14:20:16.404Z,6.38
2023-03-06T14:22:42.842Z,6.33
2023-03-06T14:25:28.561Z,5.98
2023-03-06T14:27:58.274Z,5.39
2023-03-06T14:30:32.136Z,5.80
2023-03-06T14:32:59.076Z,5.55
2023-03-06T14:35:31.003Z,5.95
2023-03-06T14:38:03.921Z,5.85
2023-03-06T14:40:42.525Z,6.01
2023-03-06T14:43:21.042Z,6.41
2023-03-06T14:45:52.616Z,6.14
2023-03-06T14:48:19.816Z,6.27
2023-03-06T14:50:56.870Z,6.59
2023-03-06T14:53:32.104Z,6.43
2023-03-06T14:56:00.897Z,6.32
2023-03-06T14:58:40.238Z,6.30
2023-03-06T15:01:09.392Z,5.96
2023-03-06T15:03:43.411Z,5.92
2023-03-06T15:06:15.220Z,6.12
2023-03-06T15:08:45.340Z,6.30
2023-03-06T15:11:11.826Z,5.83
2023-03-06T15:13:38.322Z,6.01
2023-03-06T15:16:08.812Z,6.06
2023-03-06T15:18:35.222Z,5.75
2023-03-06T15:21:10.675Z,5.57
2023-03-06T15:23:42.601Z,5.56
2023-03-06T15:26:20.756Z,5.56
2023-03-06T15:28:59.973Z,5.78
2023-03-06T15:31:40.382Z,5.80
2023-03-06T15:34:06.769Z,5.92
2023-03-06T15:36:37.709Z,5.98
2023-03-06T15:39:34.748Z,5.84
2023-03-06T15:42:20.987Z,5.91
2023-03-06T15:44:50.536Z,5.72
2023-03-06T15:47:17.523Z,6.14
2023-03-06T15:49:43.985Z,5.77
2023-03-06T15:52:10.426Z,5.50
2023-03-06T15:54:37.075Z,5.62
2023-03-06T15:57:13.508Z,5.57
2023-03-06T15:59:44.368Z,5.28
2023-03-06T16:02:19.241Z,5.43
2023-03-06T16:04:46.850Z,4.95
2023-03-06T16:07:14.260Z,4.93
2023-03-06T16:09:42.188Z,4.97
2023-03-06T16:12:20.118Z,4.62
2023-03-06T16:14:48.237Z,4.74
2023-03-06T16:17:15.993Z,4.48
2023-03-06T16:19:43.010Z,4.57
2023-03-06T16:22:09.515Z,4.56
2023-03-06T16:24:35.949Z,4.82
2023-03-06T16:27:02.906Z,4.58
2023-03-06T16:29:29.950Z,4.70
2023-03-06T16:31:57.909Z,4.51
2023-03-06T16:34:25.317Z,4.91
2023-03-06T16:36:51.888Z,4.89
2023-03-06T16:39:21.138Z,4.80
2023-03-06T16:41:47.891Z,4.97
2023-03-06T16:44:14.329Z,4.97
2023-03-06T16:46:45.446Z,4.96
2023-03-06T16:49:19.210Z,4.73
2023-03-06T16:51:45.768Z,4.57
2023-03-06T16:54:12.935Z,4.36
2023-03-06T16:56:39.440Z,4.16
2023-03-06T16:59:06.083Z,4.15
2023-03-06T17:01:32.713Z,4.10
2023-03-06T17:03:59.484Z,3.89
2023-03-06T17:06:26.057Z,3.53
2023-03-06T17:08:52.616Z,3.92
2023-03-06T17:11:19.097Z,3.77
2023-03-06T17:13:45.904Z,3.66
2023-03-06T17:16:14.078Z,3.84
2023-03-06T17:18:40.619Z,3.77
2023-03-06T17:21:20.461Z,3.67
2023-03-06T17:23:47.192Z,3.12
2023-03-06T17:26:18.797Z,3.17
2023-03-06T17:28:45.924Z,2.76
2023-03-06T17:31:20.848Z,2.78
2023-03-06T17:33:47.469Z,3.10
2023-03-06T17:36:14.854Z,3.14
2023-03-06T17:38:42.224Z,3.15
2023-03-06T17:41:09.865Z,3.14
2023-03-06T17:43:37.505Z,3.19
2023-03-06T17:46:09.023Z,3.15
2023-03-06T17:48:36.193Z,3.09
2023-03-06T17:51:03.090Z,2.88
2023-03-06T17:53:29.585Z,2.88
2023-03-06T17:55:56.243Z,2.91
2023-03-06T17:58:22.632Z,3.03
2023-03-06T18:00:49.145Z,3.02
2023-03-06T18:03:15.750Z,3.01
2023-03-06T18:05:42.456Z,2.70
2023-03-06T18:08:09.105Z,2.99
2023-03-06T18:10:39.307Z,2.95
2023-03-06T18:13:06.113Z,2.93
2023-03-06T18:15:32.583Z,2.73
2023-03-06T18:17:59.261Z,2.58
2023-03-06T18:20:25.735Z,2.58
2023-03-06T18:22:52.146Z,2.96
2023-03-06T18:25:18.718Z,2.73
2023-03-06T18:27:45.145Z,2.88
2023-03-06T18:30:12.017Z,2.94
2023-03-06T18:32:38.530Z,2.86
2023-03-06T18:35:05.496Z,2.92
2023-03-06T18:37:31.907Z,2.53
2023-03-06T18:39:58.559Z,3.01
2023-03-06T18:42:24.998Z,2.57
2023-03-06T18:44:51.433Z,3.00
2023-03-06T18:47:17.962Z,2.74
2023-03-06T18:49:44.450Z,2.84
2023-03-06T18:52:11.637Z,3.04
2023-03-06T18:54:38.533Z,2.60
2023-03-06T18:57:05.250Z,2.74
2023-03-06T18:59:31.804Z,3.13
2023-03-06T19:01:58.296Z,3.20
2023-03-06T19:04:26.339Z,2.86
2023-03-06T19:06:52.939Z,3.21
2023-03-06T19:09:19.451Z,3.15
2023-03-06T19:11:45.963Z,2.74
2023-03-06T19:14:13.852Z,3.23
2023-03-06T19:16:40.452Z,3.24
2023-03-06T19:19:07.123Z,3.19
2023-03-06T19:21:33.680Z,2.72
2023-03-06T19:24:02.085Z,3.09
2023-03-06T19:26:28.670Z,3.20
2023-03-06T19:28:55.230Z,3.23
2023-03-06T19:31:27.594Z,3.22
2023-03-06T19:33:55.866Z,3.29
2023-03-06T19:36:24.445Z,3.33
2023-03-06T19:38:54.037Z,3.37
2023-03-06T19:41:20.825Z,3.41
2023-03-06T19:43:50.514Z,3.07
2023-03-06T19:46:17.010Z,3.01
2023-03-06T19:48:44.007Z,3.04
2023-03-06T19:51:11.034Z,3.45
2023-03-06T19:53:37.583Z,3.55
2023-03-06T19:56:07.910Z,3.44
2023-03-06T19:58:35.676Z,3.69
2023-03-06T20:01:13.446Z,3.52
2023-03-06T20:03:39.966Z,3.55
2023-03-06T20:06:07.653Z,3.83
2023-03-06T20:08:34.774Z,3.41
2023-03-06T20:11:01.628Z,3.93
2023-03-06T20:13:28.203Z,3.99
2023-03-06T20:15:54.755Z,3.55
2023-03-06T20:18:21.237Z,4.09
2023-03-06T20:20:58.448Z,4.10
2023-03-06T20:23:25.097Z,4.15
2023-03-06T20:25:51.546Z,3.96
2023-03-06T20:28:17.993Z,4.09
2023-03-06T20:30:44.499Z,3.85
2023-03-06T20:33:10.961Z,3.79
2023-03-06T20:35:41.356Z,3.68
2023-03-06T20:38:08.572Z,3.69
2023-03-06T20:40:39.563Z,3.62
2023-03-06T20:43:06.638Z,3.62
2023-03-06T20:45:34.231Z,3.05
2023-03-06T20:48:00.835Z,3.61
2023-03-06T20:50:28.497Z,3.08
2023-03-06T20:52:56.579Z,3.56
2023-03-06T20:55:23.256Z,3.42
2023-03-06T20:57:53.026Z,2.99
2023-03-06T21:00:19.976Z,3.50
2023-03-06T21:02:46.612Z,2.98
2023-03-06T21:05:13.303Z,3.60
2023-03-06T21:07:39.828Z,3.49
2023-03-06T21:10:07.039Z,3.36
2023-03-06T21:12:33.487Z,3.37
2023-03-06T21:14:59.970Z,2.94
2023-03-06T21:17:27.677Z,3.43
2023-03-06T21:19:54.184Z,3.50
2023-03-06T21:22:20.713Z,3.56
2023-03-06T21:24:47.370Z,3.46
2023-03-06T21:27:13.844Z,3.46
2023-03-06T21:29:40.309Z,3.50
2023-03-06T21:32:06.905Z,2.88
2023-03-06T21:34:33.463Z,3.61
2023-03-06T21:37:00.026Z,3.36
2023-03-06T21:39:26.492Z,3.57
2023-03-06T21:41:52.936Z,3.52
2023-03-06T21:44:19.361Z,3.50
2023-03-06T21:46:45.812Z,3.65
2023-03-06T21:49:12.270Z,3.73
2023-03-06T21:51:38.740Z,3.79
2023-03-06T21:54:06.626Z,3.82
2023-03-06T21:56:33.127Z,3.89
2023-03-06T21:58:59.635Z,3.82
2023-03-06T22:01:28.051Z,3.99
2023-03-06T22:03:54.755Z,4.03
2023-03-06T22:06:24.361Z,4.00
2023-03-06T22:08:51.544Z,3.60
2023-03-06T22:11:19.888Z,4.13
2023-03-06T22:13:47.125Z,3.67
2023-03-06T22:16:14.782Z,3.73
2023-03-06T22:18:45.105Z,4.09
2023-03-06T22:21:14.055Z,4.08
2023-03-06T22:23:40.693Z,3.94
2023-03-06T22:26:12.994Z,3.90
2023-03-06T22:28:40.212Z,3.27
2023-03-06T22:31:15.110Z,3.66
2023-03-06T22:33:42.266Z,3.82
2023-03-06T22:36:11.394Z,3.78
2023-03-06T22:38:40.719Z,3.35
2023-03-06T22:41:08.582Z,3.37
2023-03-06T22:43:35.872Z,3.35
2023-03-06T22:46:04.583Z,3.82
2023-03-06T22:48:31.429Z,3.26
2023-03-06T22:51:20.627Z,3.26
2023-03-06T22:53:48.019Z,3.77
2023-03-06T22:56:17.202Z,3.67
2023-03-06T22:58:44.308Z,3.57
2023-03-06T23:01:13.983Z,3.83
2023-03-06T23:03:43.072Z,3.19
2023-03-06T23:06:12.386Z,3.20
2023-03-06T23:08:39.141Z,3.72
2023-03-06T23:11:11.049Z,3.16
2023-03-06T23:13:37.776Z,3.62
2023-03-06T23:16:05.919Z,3.59
2023-03-06T23:18:33.889Z,3.59
2023-03-06T23:21:00.359Z,3.52
2023-03-06T23:23:26.911Z,3.10
2023-03-06T23:25:59.237Z,3.52
2023-03-06T23:28:26.442Z,3.05
2023-03-06T23:30:53.031Z,3.39
2023-03-06T23:33:19.507Z,3.53
2023-03-06T23:35:46.072Z,3.56
2023-03-06T23:38:12.958Z,2.93
2023-03-06T23:40:39.459Z,3.50
2023-03-06T23:43:05.940Z,3.52
2023-03-06T23:45:32.616Z,3.51
2023-03-06T23:47:59.105Z,3.09
2023-03-06T23:50:25.975Z,3.47
2023-03-06T23:52:53.417Z,3.60
2023-03-06T23:55:20.149Z,3.47
2023-03-06T23:57:46.814Z,3.12
